Time;durP1;ratioP1;P1;durP2;ratioP2;P2;SDS_P1;SDS_P2;PMS_P1;PMS_P2;Temp;Humidity;BMP_temperature;BMP_pressure;BME280_temperature;BME280_humidity;BME280_pressure;Samples;Min_cycle;Max_cycle;Signal;HPM_P1;HPM_P2
2021/05/08 00:01:18;;;;;;;11.48;5.47;;;13.50;82.70;;;;;;6246555;23;20008;-90
2021/05/08 00:03:44;;;;;;;11.88;5.82;;;13.50;82.80;;;;;;6246163;23;20007;-89
2021/05/08 00:06:12;;;;;;;17.30;6.85;;;13.50;82.70;;;;;;6247379;22;20352;-89
2021/05/08 00:08:37;;;;;;;16.08;6.68;;;13.50;82.60;;;;;;6246146;22;20000;-90
2021/05/08 00:11:04;;;;;;;16.80;6.50;;;13.50;82.60;;;;;;6247679;22;20347;-90
2021/05/08 00:13:30;;;;;;;11.77;5.28;;;13.50;82.50;;;;;;6246141;22;20436;-90
2021/05/08 00:15:56;;;;;;;8.05;5.00;;;13.60;82.50;;;;;;6246428;22;20126;-90
2021/05/08 00:18:22;;;;;;;5.85;3.72;;;13.60;82.40;;;;;;6247428;22;20290;-90
2021/05/08 00:20:48;;;;;;;6.63;4.50;;;13.60;82.40;;;;;;6245991;22;20008;-90
2021/05/08 00:23:13;;;;;;;5.57;4.53;;;13.60;82.30;;;;;;6247461;22;20411;-90
2021/05/08 00:25:39;;;;;;;5.55;4.13;;;13.60;82.70;;;;;;6245803;23;20323;-90
2021/05/08 00:28:05;;;;;;;4.38;3.63;;;13.60;82.60;;;;;;6246182;23;20420;-91
2021/05/08 00:30:32;;;;;;;5.43;3.58;;;13.60;82.70;;;;;;6246297;22;20062;-90
2021/05/08 00:32:58;;;;;;;4.13;3.67;;;13.50;82.70;;;;;;6246522;23;20038;-90
2021/05/08 00:35:24;;;;;;;5.90;4.45;;;13.50;82.90;;;;;;6245803;23;20436;-91
2021/05/08 00:37:49;;;;;;;5.78;4.60;;;13.40;83.30;;;;;;6246554;23;20015;-90
2021/05/08 00:40:15;;;;;;;6.65;4.40;;;13.40;83.40;;;;;;6245796;22;19996;-90
2021/05/08 00:42:41;;;;;;;5.38;4.18;;;13.40;83.30;;;;;;6247376;22;20094;-89
2021/05/08 00:45:07;;;;;;;5.85;4.68;;;13.30;83.30;;;;;;6245739;22;20000;-90
2021/05/08 00:47:42;;;;;;;5.05;4.22;;;13.30;83.60;;;;;;6245782;22;20000;-90
2021/05/08 00:50:09;;;;;;;5.25;4.32;;;13.20;84.40;;;;;;6246168;23;20293;-90
2021/05/08 00:52:37;;;;;;;5.93;4.00;;;13.20;84.20;;;;;;6245673;22;20087;-90
2021/05/08 00:55:04;;;;;;;6.03;3.53;;;13.20;84.30;;;;;;6247226;22;20316;-90
2021/05/08 00:57:30;;;;;;;3.42;3.10;;;13.20;84.10;;;;;;6245710;23;20001;-90
2021/05/08 00:59:56;;;;;;;6.10;3.40;;;13.20;84.10;;;;;;6247371;22;20003;-90
2021/05/08 01:02:21;;;;;;;5.15;3.60;;;13.20;84.20;;;;;;6245675;23;20023;-89
2021/05/08 01:04:47;;;;;;;4.63;3.60;;;13.20;84.30;;;;;;6246008;22;20328;-90
2021/05/08 01:07:13;;;;;;;4.88;3.65;;;13.20;84.20;;;;;;6245727;22;20082;-90
2021/05/08 01:09:40;;;;;;;4.25;3.50;;;13.20;84.20;;;;;;6247151;22;20011;-90
2021/05/08 01:12:06;;;;;;;4.13;3.30;;;13.30;84.20;;;;;;6245535;23;20012;-90
2021/05/08 01:14:32;;;;;;;3.80;3.40;;;13.30;84.20;;;;;;6246610;22;20016;-90
2021/05/08 01:16:58;;;;;;;5.43;3.67;;;13.30;84.10;;;;;;6246610;23;20073;-89
2021/05/08 01:19:28;;;;;;;4.50;3.80;;;13.30;83.90;;;;;;6247216;23;20090;-89
2021/05/08 01:21:54;;;;;;;4.82;3.92;;;13.30;84.00;;;;;;6247767;23;20016;-89
2021/05/08 01:24:20;;;;;;;4.63;3.70;;;13.30;84.00;;;;;;6247654;22;20316;-89
2021/05/08 01:26:46;;;;;;;5.65;3.65;;;13.30;84.00;;;;;;6247526;23;20006;-89
2021/05/08 01:29:11;;;;;;;6.15;4.45;;;13.30;84.00;;;;;;6248330;22;20022;-90
2021/05/08 01:31:37;;;;;;;6.60;3.55;;;13.20;84.00;;;;;;6247368;22;20062;-90
2021/05/08 01:34:03;;;;;;;5.45;4.07;;;13.20;84.20;;;;;;6247578;22;20004;-89
2021/05/08 01:36:32;;;;;;;5.88;4.28;;;13.20;84.40;;;;;;6247521;23;20039;-90
2021/05/08 01:38:58;;;;;;;5.80;4.22;;;13.20;84.60;;;;;;6248354;22;20396;-89
2021/05/08 01:41:23;;;;;;;6.43;4.18;;;13.20;84.80;;;;;;6249259;22;20115;-89
2021/05/08 01:43:49;;;;;;;4.05;3.72;;;13.20;84.80;;;;;;6249102;22;20407;-90
2021/05/08 01:46:15;;;;;;;5.80;4.15;;;13.20;84.80;;;;;;6247686;22;20424;-90
2021/05/08 01:48:40;;;;;;;6.13;4.03;;;13.30;84.70;;;;;;6249021;22;20008;-90
2021/05/08 01:51:06;;;;;;;4.20;3.80;;;13.30;84.70;;;;;;6248866;22;20001;-89
2021/05/08 01:53:32;;;;;;;5.80;3.88;;;13.30;84.70;;;;;;6247376;22;20106;-89
2021/05/08 01:55:57;;;;;;;4.25;3.58;;;13.20;84.70;;;;;;6247373;23;20000;-89
2021/05/08 01:58:23;;;;;;;4.47;3.60;;;13.20;84.60;;;;;;6247240;22;20419;-89
2021/05/08 02:00:50;;;;;;;4.45;3.60;;;13.20;84.80;;;;;;6248692;22;20408;-88
2021/05/08 02:03:16;;;;;;;4.53;3.63;;;13.20;84.90;;;;;;6247358;23;20031;-89
2021/05/08 02:05:44;;;;;;;4.70;4.00;;;13.20;84.90;;;;;;6247023;23;20047;-90
2021/05/08 02:08:11;;;;;;;4.38;3.58;;;13.20;84.80;;;;;;6247893;22;20042;-89
2021/05/08 02:10:39;;;;;;;5.55;4.13;;;13.30;84.80;;;;;;6247096;23;20011;-89
2021/05/08 02:13:07;;;;;;;4.43;3.75;;;13.30;84.90;;;;;;6248592;22;20016;-89
2021/05/08 02:15:33;;;;;;;3.65;3.35;;;13.30;85.00;;;;;;6247295;23;20081;-90
2021/05/08 02:17:59;;;;;;;5.68;3.75;;;13.30;84.90;;;;;;6247084;23;20008;-89
2021/05/08 02:20:27;;;;;;;5.93;3.75;;;13.30;84.80;;;;;;6246918;23;20107;-89
2021/05/08 02:22:54;;;;;;;5.88;3.95;;;13.30;84.90;;;;;;6247386;22;20014;-89
2021/05/08 02:25:21;;;;;;;4.80;4.10;;;13.30;84.80;;;;;;6247237;23;20004;-90
2021/05/08 02:27:46;;;;;;;4.43;3.92;;;13.30;84.80;;;;;;6248298;22;20438;-89
2021/05/08 02:30:16;;;;;;;4.90;3.92;;;13.30;84.80;;;;;;6248406;22;20000;-89
2021/05/08 02:32:42;;;;;;;4.65;4.15;;;13.30;84.80;;;;;;6247110;23;20016;-89
2021/05/08 02:35:09;;;;;;;4.80;4.03;;;13.30;84.80;;;;;;6246985;22;20443;-89
2021/05/08 02:37:36;;;;;;;6.78;4.55;;;13.30;84.70;;;;;;6247016;23;20016;-90
2021/05/08 02:40:05;;;;;;;6.00;4.32;;;13.40;84.80;;;;;;6246968;23;20083;-89
2021/05/08 02:42:31;;;;;;;5.55;4.00;;;13.40;84.80;;;;;;6246913;22;20496;-89
2021/05/08 02:44:57;;;;;;;6.13;3.97;;;13.40;84.80;;;;;;6247083;23;20000;-89
2021/05/08 02:47:22;;;;;;;6.82;5.15;;;13.40;84.80;;;;;;6248330;22;20446;-89
2021/05/08 02:49:49;;;;;;;5.18;4.00;;;13.40;84.90;;;;;;6246566;22;20383;-89
2021/05/08 02:52:19;;;;;;;6.53;3.80;;;13.40;85.00;;;;;;6247141;22;20004;-90
2021/05/08 02:54:45;;;;;;;5.55;4.20;;;13.40;85.00;;;;;;6248350;22;20007;-89
2021/05/08 02:57:10;;;;;;;4.65;3.53;;;13.40;85.20;;;;;;6247057;23;20036;-90
2021/05/08 02:59:36;;;;;;;6.43;3.90;;;13.40;85.00;;;;;;6249791;22;20023;-89
2021/05/08 03:02:03;;;;;;;5.75;3.90;;;13.40;85.10;;;;;;6247517;22;20008;-89
2021/05/08 03:04:29;;;;;;;6.45;3.45;;;13.40;85.10;;;;;;6246339;23;20012;-89
2021/05/08 03:06:55;;;;;;;4.95;3.75;;;13.40;85.10;;;;;;6248235;22;19992;-89
2021/05/08 03:09:22;;;;;;;6.40;3.40;;;13.40;85.20;;;;;;6247046;23;20000;-89
2021/05/08 03:11:48;;;;;;;6.13;4.07;;;13.40;85.40;;;;;;6246528;23;20004;-88
2021/05/08 03:14:13;;;;;;;4.68;3.88;;;13.40;85.50;;;;;;6246312;23;20016;-89
2021/05/08 03:16:41;;;;;;;6.82;3.45;;;13.40;85.70;;;;;;6246535;23;20008;-89
2021/05/08 03:19:07;;;;;;;6.72;3.33;;;13.40;85.80;;;;;;6247934;22;19999;-88
2021/05/08 03:21:32;;;;;;;3.75;3.05;;;13.40;85.90;;;;;;6248054;22;20012;-89
2021/05/08 03:23:59;;;;;;;5.25;4.07;;;13.40;85.90;;;;;;6246621;23;20008;-89
2021/05/08 03:26:25;;;;;;;4.82;3.53;;;13.40;86.00;;;;;;6246423;23;20004;-90
2021/05/08 03:28:51;;;;;;;5.05;3.72;;;13.40;86.00;;;;;;6246342;22;20005;-89
2021/05/08 03:31:16;;;;;;;4.15;3.70;;;13.40;86.10;;;;;;6246472;22;20008;-89
2021/05/08 03:33:42;;;;;;;5.20;3.15;;;13.40;86.10;;;;;;6248038;22;20004;-90
2021/05/08 03:36:08;;;;;;;3.95;3.53;;;13.40;86.20;;;;;;6246811;23;20439;-89
2021/05/08 03:38:34;;;;;;;3.10;2.78;;;13.40;86.20;;;;;;6246303;22;20040;-89
2021/05/08 03:40:59;;;;;;;4.15;3.50;;;13.40;86.30;;;;;;6245885;22;20309;-89
2021/05/08 03:43:25;;;;;;;4.50;3.53;;;13.40;86.20;;;;;;6246247;22;20363;-88
2021/05/08 03:45:51;;;;;;;5.18;3.90;;;13.50;86.30;;;;;;6246495;23;20004;-88
2021/05/08 03:48:16;;;;;;;4.43;3.92;;;13.50;86.40;;;;;;6248274;22;20380;-89
2021/05/08 03:50:42;;;;;;;8.05;3.92;;;13.50;86.40;;;;;;6247818;22;20000;-88
2021/05/08 03:53:08;;;;;;;5.00;3.40;;;13.50;86.40;;;;;;6247470;22;19996;-90
2021/05/08 03:55:37;;;;;;;5.40;3.45;;;13.50;86.40;;;;;;6246275;23;20387;-89
2021/05/08 03:58:03;;;;;;;4.60;3.25;;;13.50;86.50;;;;;;6249603;22;19996;-89
2021/05/08 04:00:28;;;;;;;6.18;3.65;;;13.50;86.40;;;;;;6247493;22;20075;-89
2021/05/08 04:02:54;;;;;;;4.85;4.20;;;13.50;86.40;;;;;;6246016;23;20069;-89
2021/05/08 04:05:19;;;;;;;6.30;4.25;;;13.40;86.40;;;;;;6245951;23;20004;-89
2021/05/08 04:07:45;;;;;;;4.07;3.63;;;13.40;86.40;;;;;;6246193;23;20004;-89
2021/05/08 04:10:11;;;;;;;6.97;4.05;;;13.40;86.60;;;;;;6246325;23;20004;-91
2021/05/08 04:12:37;;;;;;;5.22;4.18;;;13.40;86.60;;;;;;6245809;22;20008;-89
2021/05/08 04:15:03;;;;;;;5.00;4.20;;;13.40;86.80;;;;;;6247081;23;20090;-89
2021/05/08 04:17:29;;;;;;;7.38;4.65;;;13.40;87.00;;;;;;6247360;22;20003;-88
2021/05/08 04:19:55;;;;;;;9.20;4.45;;;13.40;86.90;;;;;;6245906;23;20000;-89
2021/05/08 04:22:20;;;;;;;7.63;5.30;;;13.40;87.20;;;;;;6247327;22;20004;-89
2021/05/08 04:24:46;;;;;;;8.05;5.10;;;13.40;87.60;;;;;;6246173;22;20335;-89
2021/05/08 04:27:12;;;;;;;6.72;4.80;;;13.30;87.60;;;;;;6261050;22;20000;-88
2021/05/08 04:29:37;;;;;;;7.90;5.10;;;13.30;87.70;;;;;;6248610;22;20004;-88
2021/05/08 04:32:03;;;;;;;6.60;4.68;;;13.20;88.10;;;;;;6246210;23;20015;-88
2021/05/08 04:34:29;;;;;;;6.55;4.72;;;13.20;88.30;;;;;;6246112;22;20004;-89
2021/05/08 04:36:54;;;;;;;6.60;4.80;;;13.20;88.40;;;;;;6246925;22;20008;-89
2021/05/08 04:39:20;;;;;;;6.63;4.18;;;13.20;88.50;;;;;;6245675;22;20050;-89
2021/05/08 04:41:46;;;;;;;5.45;4.00;;;13.10;88.70;;;;;;6247661;22;20004;-89
2021/05/08 04:44:11;;;;;;;9.30;4.45;;;13.10;89.00;;;;;;6245626;23;20332;-89
2021/05/08 04:46:37;;;;;;;6.50;4.40;;;13.10;89.30;;;;;;6245658;22;20004;-89
2021/05/08 04:49:03;;;;;;;5.80;4.43;;;13.00;89.40;;;;;;6247313;22;20003;-88
2021/05/08 04:51:29;;;;;;;5.38;4.53;;;13.00;89.90;;;;;;6245564;22;20019;-89
2021/05/08 04:53:54;;;;;;;7.78;5.22;;;12.90;90.00;;;;;;6245787;23;20012;-89
2021/05/08 04:56:22;;;;;;;6.53;4.78;;;12.90;90.50;;;;;;6245858;22;20023;-89
2021/05/08 04:58:48;;;;;;;6.78;5.70;;;12.80;90.60;;;;;;6247121;22;20000;-89
2021/05/08 05:01:14;;;;;;;5.95;4.65;;;12.80;90.70;;;;;;6245939;23;20463;-89
2021/05/08 05:03:39;;;;;;;6.70;5.40;;;12.80;91.00;;;;;;6245873;23;20045;-89
2021/05/08 05:06:05;;;;;;;6.90;5.10;;;12.80;90.90;;;;;;6245662;22;20328;-89
2021/05/08 05:08:31;;;;;;;7.90;5.57;;;12.80;91.10;;;;;;6245316;23;20455;-88
2021/05/08 05:10:57;;;;;;;7.20;5.38;;;12.80;91.10;;;;;;6246909;22;20408;-89
2021/05/08 05:13:24;;;;;;;6.47;4.80;;;12.80;91.20;;;;;;6245128;23;20431;-89
2021/05/08 05:15:51;;;;;;;9.13;5.80;;;12.80;91.30;;;;;;6245496;22;20431;-88
2021/05/08 05:18:17;;;;;;;8.00;5.47;;;12.80;91.40;;;;;;6245510;22;20427;-89
2021/05/08 05:20:45;;;;;;;8.63;5.57;;;12.80;91.50;;;;;;6245742;22;20305;-89
2021/05/08 05:23:10;;;;;;;7.00;5.30;;;12.70;91.60;;;;;;6245612;22;20000;-89
2021/05/08 05:25:37;;;;;;;8.18;6.22;;;12.70;91.60;;;;;;6245121;23;20004;-89
2021/05/08 05:28:03;;;;;;;6.85;5.70;;;12.70;91.80;;;;;;6247302;22;20024;-88
2021/05/08 05:30:29;;;;;;;8.07;5.70;;;12.70;91.90;;;;;;6245656;23;20004;-89
2021/05/08 05:32:55;;;;;;;6.85;5.00;;;12.70;92.00;;;;;;6247857;22;20076;-89
2021/05/08 05:35:21;;;;;;;7.05;5.95;;;12.70;92.30;;;;;;6246785;22;20039;-88
2021/05/08 05:37:47;;;;;;;6.80;5.82;;;12.70;92.60;;;;;;6245637;22;20106;-89
2021/05/08 05:40:13;;;;;;;6.78;5.43;;;12.70;92.40;;;;;;6246640;22;20003;-89
2021/05/08 05:42:39;;;;;;;7.45;5.15;;;12.60;92.50;;;;;;6245355;22;20012;-88
2021/05/08 05:45:06;;;;;;;9.40;5.75;;;12.60;92.60;;;;;;6246790;22;20001;-89
2021/05/08 05:47:32;;;;;;;8.35;5.68;;;12.60;92.80;;;;;;6246760;22;20450;-89
2021/05/08 05:49:58;;;;;;;5.88;4.93;;;12.60;92.70;;;;;;6245492;23;20420;-89
2021/05/08 05:52:24;;;;;;;8.43;6.50;;;12.60;92.60;;;;;;6245384;22;20023;-89
2021/05/08 05:54:51;;;;;;;6.53;5.50;;;12.50;93.10;;;;;;6245038;22;20004;-89
2021/05/08 05:57:18;;;;;;;7.28;5.53;;;12.50;92.80;;;;;;6245089;22;20007;-90
2021/05/08 05:59:44;;;;;;;9.45;5.88;;;12.50;92.80;;;;;;6246897;22;20000;-89
2021/05/08 06:02:11;;;;;;;7.18;6.15;;;12.50;92.90;;;;;;6246333;22;20072;-90
2021/05/08 06:04:37;;;;;;;6.88;6.00;;;12.50;92.80;;;;;;6247542;23;20431;-89
2021/05/08 06:07:04;;;;;;;7.55;5.70;;;12.50;92.90;;;;;;6247401;23;20032;-89
2021/05/08 06:09:31;;;;;;;7.70;6.00;;;12.50;93.00;;;;;;6248003;22;20008;-90
2021/05/08 06:11:58;;;;;;;7.00;5.57;;;12.50;93.00;;;;;;6248884;23;20000;-88
2021/05/08 06:14:24;;;;;;;6.18;5.50;;;12.50;93.00;;;;;;6250976;22;20019;-91
2021/05/08 06:16:50;;;;;;;6.63;4.72;;;12.60;93.00;;;;;;6250371;22;20008;-90
2021/05/08 06:19:16;;;;;;;8.75;5.20;;;12.60;93.10;;;;;;6248294;22;20004;-89
2021/05/08 06:21:43;;;;;;;6.07;4.63;;;12.60;93.10;;;;;;6249633;22;20040;-89
2021/05/08 06:24:12;;;;;;;4.55;4.07;;;12.70;93.10;;;;;;6247154;22;20004;-89
2021/05/08 06:26:37;;;;;;;4.60;4.07;;;12.70;93.20;;;;;;6246979;22;20031;-88
2021/05/08 06:29:04;;;;;;;4.53;3.95;;;12.70;93.00;;;;;;6246927;22;20412;-89
2021/05/08 06:31:31;;;;;;;7.38;4.50;;;12.80;93.10;;;;;;6246701;23;20007;-89
2021/05/08 06:33:56;;;;;;;3.97;3.58;;;12.80;93.10;;;;;;6248358;22;20007;-89
2021/05/08 06:36:22;;;;;;;5.75;3.40;;;12.90;93.00;;;;;;6245700;22;20004;-89
2021/05/08 06:38:48;;;;;;;3.88;3.13;;;12.90;93.00;;;;;;6247638;22;20301;-88
2021/05/08 06:41:14;;;;;;;5.30;3.97;;;12.90;93.00;;;;;;6246730;22;20019;-90
2021/05/08 06:43:40;;;;;;;5.88;3.50;;;13.00;93.10;;;;;;6246870;22;20009;-90
2021/05/08 06:46:07;;;;;;;4.20;3.45;;;13.10;93.10;;;;;;6246620;23;20083;-89
2021/05/08 06:48:36;;;;;;;5.40;3.70;;;13.10;92.90;;;;;;6247403;22;20108;-90
2021/05/08 06:51:05;;;;;;;4.45;3.13;;;13.10;92.60;;;;;;6248335;22;20008;-91
2021/05/08 06:53:31;;;;;;;4.45;3.28;;;13.10;92.60;;;;;;6246798;22;20412;-90
2021/05/08 06:55:57;;;;;;;5.15;3.75;;;13.10;92.60;;;;;;6247059;22;20019;-90
2021/05/08 06:58:22;;;;;;;5.45;3.30;;;13.20;92.50;;;;;;6246581;22;20351;-91
2021/05/08 07:00:48;;;;;;;4.55;3.72;;;13.20;92.50;;;;;;6244703;23;20008;-90
2021/05/08 07:03:14;;;;;;;5.07;3.55;;;13.20;92.50;;;;;;6246567;22;20076;-91
2021/05/08 07:05:39;;;;;;;5.30;3.42;;;13.10;92.40;;;;;;6244893;23;20511;-90
2021/05/08 07:08:08;;;;;;;4.68;3.50;;;13.10;92.30;;;;;;6245673;22;20013;-90
2021/05/08 07:10:45;;;;;;;4.80;3.92;;;13.10;92.20;;;;;;6248110;22;20065;-89
2021/05/08 07:13:11;;;;;;;7.25;4.20;;;13.10;92.40;;;;;;6247759;22;20332;-90
2021/05/08 07:15:36;;;;;;;4.20;3.78;;;13.00;92.40;;;;;;6247728;22;20003;-91
2021/05/08 07:18:04;;;;;;;5.47;4.85;;;13.00;92.40;;;;;;6245761;22;20360;-90
2021/05/08 07:20:31;;;;;;;5.88;4.05;;;13.00;92.70;;;;;;6245021;22;20339;-90
2021/05/08 07:22:57;;;;;;;7.18;4.82;;;12.90;92.60;;;;;;6245546;22;20016;-89
2021/05/08 07:25:23;;;;;;;5.85;4.22;;;12.90;92.60;;;;;;6242202;23;20011;-89
2021/05/08 07:27:49;;;;;;;6.47;5.53;;;12.90;92.60;;;;;;6247096;22;20028;-90
2021/05/08 07:30:16;;;;;;;6.90;5.60;;;12.90;92.80;;;;;;6245140;23;20004;-90
2021/05/08 07:32:41;;;;;;;6.95;4.82;;;12.80;92.90;;;;;;6246202;22;20073;-89
2021/05/08 07:35:08;;;;;;;5.85;4.40;;;12.80;92.80;;;;;;6246095;22;20067;-90
2021/05/08 07:37:35;;;;;;;7.10;5.53;;;12.80;92.80;;;;;;6244974;22;20032;-90
2021/05/08 07:40:02;;;;;;;5.22;4.57;;;12.80;92.90;;;;;;6243336;22;20475;-89
2021/05/08 07:42:27;;;;;;;6.70;4.40;;;12.80;92.90;;;;;;6243915;22;20004;-89
2021/05/08 07:44:53;;;;;;;5.65;5.05;;;12.70;93.00;;;;;;6244004;23;20027;-91
2021/05/08 07:47:20;;;;;;;6.13;5.30;;;12.70;93.30;;;;;;6245083;22;20008;-90
2021/05/08 07:49:45;;;;;;;5.10;4.60;;;12.70;93.20;;;;;;6244535;23;20407;-89
2021/05/08 07:52:12;;;;;;;6.18;5.10;;;12.70;93.20;;;;;;6244179;23;20367;-90
2021/05/08 07:54:37;;;;;;;6.50;5.60;;;12.70;93.30;;;;;;6245458;22;20080;-90
2021/05/08 07:57:03;;;;;;;8.23;7.00;;;12.70;93.30;;;;;;6245271;22;20024;-91
2021/05/08 07:59:29;;;;;;;9.25;8.00;;;12.70;93.40;;;;;;6245270;23;20165;-89
2021/05/08 08:01:55;;;;;;;10.13;8.32;;;12.60;93.50;;;;;;6244076;23;20042;-90
2021/05/08 08:04:21;;;;;;;11.07;8.68;;;12.60;93.50;;;;;;6245998;22;20011;-90
2021/05/08 08:06:46;;;;;;;10.60;9.15;;;12.60;93.60;;;;;;6244562;23;20004;-89
2021/05/08 08:09:12;;;;;;;10.85;9.20;;;12.60;93.70;;;;;;6245161;23;20014;-90
2021/05/08 08:11:45;;;;;;;10.13;8.55;;;12.60;93.70;;;;;;6245074;22;20445;-90
2021/05/08 08:14:11;;;;;;;13.20;8.75;;;12.70;93.90;;;;;;6244759;22;20020;-90
2021/05/08 08:16:37;;;;;;;10.18;8.63;;;12.70;93.90;;;;;;6245524;22;20011;-90
2021/05/08 08:19:03;;;;;;;8.80;7.20;;;12.70;93.90;;;;;;6244833;23;20028;-90
2021/05/08 08:21:29;;;;;;;8.85;7.35;;;12.80;94.00;;;;;;6245272;23;20036;-90
2021/05/08 08:23:56;;;;;;;7.65;6.18;;;12.90;94.10;;;;;;6244753;23;20004;-90
2021/05/08 08:26:24;;;;;;;9.25;6.22;;;12.90;94.00;;;;;;6245968;22;19996;-90
2021/05/08 08:28:50;;;;;;;6.05;5.45;;;13.00;94.10;;;;;;6220514;23;20023;-89
2021/05/08 08:31:16;;;;;;;8.40;6.45;;;13.10;94.10;;;;;;6245206;23;20499;-89
2021/05/08 08:33:41;;;;;;;7.57;6.20;;;13.10;94.10;;;;;;6245561;22;20011;-89
2021/05/08 08:36:07;;;;;;;7.50;6.13;;;13.30;94.20;;;;;;6244496;23;20428;-90
2021/05/08 08:38:34;;;;;;;7.38;6.18;;;13.30;94.10;;;;;;6242793;23;20007;-91
2021/05/08 08:41:00;;;;;;;6.53;5.82;;;13.50;94.10;;;;;;6244446;22;20016;-91
2021/05/08 08:43:27;;;;;;;7.80;6.60;;;13.60;94.30;;;;;;6245323;22;20008;-90
2021/05/08 08:45:53;;;;;;;7.82;6.75;;;13.70;93.60;;;;;;6245358;23;20009;-91
2021/05/08 08:48:20;;;;;;;6.95;6.25;;;13.70;93.40;;;;;;6244538;23;20029;-91
2021/05/08 08:50:48;;;;;;;8.15;6.68;;;13.70;93.40;;;;;;6244938;23;20420;-90
2021/05/08 08:53:15;;;;;;;8.52;7.15;;;13.90;93.80;;;;;;6246776;22;20000;-90
2021/05/08 08:55:55;;;;;;;8.50;7.68;;;14.00;93.80;;;;;;6244927;22;20371;-91
2021/05/08 08:58:28;;;;;;;10.38;7.70;;;14.20;93.90;;;;;;6244507;23;20008;-90
2021/05/08 09:01:05;;;;;;;8.13;7.32;;;14.40;93.40;;;;;;6244772;23;21978;-91
2021/05/08 09:03:31;;;;;;;8.07;7.05;;;14.60;92.90;;;;;;6247674;23;20004;-90
2021/05/08 09:06:01;;;;;;;7.75;6.90;;;14.70;92.40;;;;;;6248721;22;19996;-90
2021/05/08 09:08:29;;;;;;;9.60;8.52;;;14.80;91.50;;;;;;6249072;22;20075;-91
2021/05/08 09:11:17;;;;;;;9.23;8.15;;;14.80;91.20;;;;;;6244831;23;20004;-90
2021/05/08 09:13:46;;;;;;;7.78;6.38;;;14.70;90.70;;;;;;6245434;23;20113;-91
2021/05/08 09:16:12;;;;;;;6.45;5.60;;;14.40;90.10;;;;;;6244171;22;20004;-91
2021/05/08 09:18:40;;;;;;;6.60;6.00;;;14.20;90.20;;;;;;6244522;23;20011;-90
2021/05/08 09:21:25;;;;;;;5.68;4.95;;;14.10;90.70;;;;;;6245068;22;20026;-90
2021/05/08 09:23:50;;;;;;;6.93;5.30;;;14.00;90.60;;;;;;6246193;22;20004;-91
2021/05/08 09:26:17;;;;;;;5.72;4.28;;;14.00;90.50;;;;;;6246861;22;20027;-91
2021/05/08 09:28:55;;;;;;;5.53;4.20;;;13.90;90.70;;;;;;6245833;23;20451;-90
2021/05/08 09:31:22;;;;;;;6.70;4.45;;;13.90;90.60;;;;;;6248009;23;20077;-91
2021/05/08 09:33:56;;;;;;;5.82;4.35;;;13.90;91.10;;;;;;6247006;22;20070;-90
2021/05/08 09:36:22;;;;;;;6.30;4.85;;;14.00;91.00;;;;;;6245015;23;20012;-90
2021/05/08 09:38:48;;;;;;;5.10;4.57;;;14.10;91.10;;;;;;6245371;23;20213;-90
2021/05/08 09:41:17;;;;;;;4.65;4.20;;;14.10;89.60;;;;;;6248165;22;20008;-90
2021/05/08 09:43:45;;;;;;;4.20;3.80;;;14.10;90.30;;;;;;6245939;22;20435;-92
2021/05/08 09:46:28;;;;;;;4.45;3.85;;;14.10;90.00;;;;;;6248184;22;20007;-90
2021/05/08 09:49:19;;;;;;;4.32;3.92;;;14.30;90.40;;;;;;6246643;23;20055;-90
2021/05/08 09:51:45;;;;;;;4.28;3.88;;;14.40;86.40;;;;;;6245401;23;20007;-90
2021/05/08 09:54:18;;;;;;;4.28;3.80;;;14.50;87.70;;;;;;6245707;23;20429;-90
2021/05/08 09:56:46;;;;;;;4.32;3.80;;;14.70;86.40;;;;;;6245865;22;20066;-90
2021/05/08 09:59:36;;;;;;;4.32;3.47;;;14.60;83.60;;;;;;6245779;22;20004;-89
2021/05/08 10:02:02;;;;;;;4.90;3.40;;;14.50;80.50;;;;;;6246284;23;20436;-89
2021/05/08 10:04:38;;;;;;;5.00;4.18;;;14.20;82.80;;;;;;6245978;23;20003;-90
2021/05/08 10:07:15;;;;;;;5.80;4.85;;;14.00;81.70;;;;;;6247265;22;20031;-91
2021/05/08 10:09:43;;;;;;;6.00;4.85;;;13.60;81.80;;;;;;6245504;23;20016;-90
2021/05/08 10:12:10;;;;;;;5.95;5.30;;;13.10;82.60;;;;;;6245855;22;20296;-91
2021/05/08 10:14:46;;;;;;;5.30;4.80;;;12.90;83.20;;;;;;6246577;23;20420;-90
2021/05/08 10:17:13;;;;;;;5.40;4.55;;;12.60;83.60;;;;;;6242065;23;20084;-90
2021/05/08 10:19:40;;;;;;;5.20;4.53;;;12.50;84.90;;;;;;6245739;23;20096;-90
2021/05/08 10:22:08;;;;;;;5.45;4.93;;;12.40;85.90;;;;;;6245470;23;20106;-90
2021/05/08 10:24:36;;;;;;;6.05;4.65;;;12.50;86.50;;;;;;6245105;23;20049;-90
2021/05/08 10:27:02;;;;;;;5.43;4.85;;;12.60;86.60;;;;;;6245998;23;19997;-90
2021/05/08 10:29:36;;;;;;;5.78;4.80;;;12.70;86.20;;;;;;6247799;22;19992;-90
2021/05/08 10:32:04;;;;;;;6.88;5.18;;;12.70;86.30;;;;;;6245248;23;20004;-89
2021/05/08 10:34:37;;;;;;;5.55;4.95;;;12.70;84.70;;;;;;6245552;23;20004;-89
2021/05/08 10:37:10;;;;;;;6.25;4.85;;;12.50;84.60;;;;;;6248375;22;20004;-89
2021/05/08 10:39:49;;;;;;;6.65;4.40;;;12.40;85.40;;;;;;6245146;23;20031;-89
2021/05/08 10:42:31;;;;;;;4.88;4.38;;;12.30;84.20;;;;;;6247208;23;20015;-91
2021/05/08 10:44:58;;;;;;;5.03;4.25;;;12.20;84.60;;;;;;6246931;22;20007;-92
2021/05/08 10:47:46;;;;;;;4.47;3.47;;;12.20;85.10;;;;;;6245854;22;20023;-92
2021/05/08 10:50:24;;;;;;;3.83;3.35;;;12.30;85.10;;;;;;6245102;22;20050;-92
2021/05/08 10:53:11;;;;;;;3.58;2.78;;;12.30;81.80;;;;;;6245220;23;20015;-93
2021/05/08 10:55:57;;;;;;;4.03;3.13;;;12.10;81.50;;;;;;6247390;22;19996;-90
2021/05/08 10:58:23;;;;;;;3.15;2.63;;;12.10;80.40;;;;;;6246146;23;20441;-92
2021/05/08 11:00:57;;;;;;;2.50;2.20;;;12.00;80.60;;;;;;6245812;23;20004;-93
2021/05/08 11:03:30;;;;;;;2.63;1.88;;;11.90;77.50;;;;;;6246512;23;20031;-92
2021/05/08 11:06:04;;;;;;;2.55;2.20;;;11.80;78.50;;;;;;6247443;22;20000;-92
2021/05/08 11:08:31;;;;;;;2.15;1.92;;;11.80;79.70;;;;;;6247658;22;20046;-92
2021/05/08 11:11:01;;;;;;;2.47;2.28;;;11.80;79.90;;;;;;6248823;22;20004;-92
2021/05/08 11:13:44;;;;;;;2.60;2.40;;;11.80;80.50;;;;;;6251400;22;20032;-91
2021/05/08 11:16:26;;;;;;;3.00;2.70;;;11.80;80.10;;;;;;6247802;22;20102;-89
2021/05/08 11:18:57;;;;;;;2.92;2.55;;;11.80;79.80;;;;;;6245887;23;20004;-91
2021/05/08 11:21:30;;;;;;;4.10;2.45;;;11.90;79.10;;;;;;6247474;23;20424;-90
2021/05/08 11:24:05;;;;;;;2.92;2.47;;;11.90;80.30;;;;;;6246672;22;20059;-93
2021/05/08 11:26:34;;;;;;;5.45;2.67;;;12.20;80.70;;;;;;6247655;22;20454;-90
2021/05/08 11:29:08;;;;;;;2.28;1.95;;;12.30;80.10;;;;;;6248026;22;20062;-92
2021/05/08 11:31:38;;;;;;;2.47;2.28;;;12.50;79.90;;;;;;6247057;23;20015;-92
2021/05/08 11:34:31;;;;;;;2.33;2.13;;;12.70;79.70;;;;;;6246139;22;19997;-93
2021/05/08 11:37:04;;;;;;;2.55;2.35;;;12.90;77.00;;;;;;6264535;22;20008;-90
2021/05/08 11:39:46;;;;;;;2.10;1.90;;;13.10;79.30;;;;;;6245898;23;20602;-92
2021/05/08 11:42:15;;;;;;;2.30;2.10;;;13.30;78.60;;;;;;6245460;23;20015;-90
2021/05/08 11:44:46;;;;;;;2.95;2.50;;;13.30;77.40;;;;;;6246255;22;20008;-93
2021/05/08 11:50:09;;;;;;;1.90;1.80;;;13.10;75.40;;;;;;6247535;22;20000;-92
2021/05/08 11:52:36;;;;;;;2.05;1.88;;;12.90;74.30;;;;;;6245953;23;20089;-90
2021/05/08 11:55:17;;;;;;;2.95;2.47;;;12.70;75.60;;;;;;6247378;22;19996;-89
2021/05/08 11:57:54;;;;;;;2.75;2.30;;;12.50;75.90;;;;;;6245725;23;20358;-89
2021/05/08 12:00:22;;;;;;;3.85;2.58;;;12.50;75.80;;;;;;6244623;23;20036;-89
2021/05/08 12:02:51;;;;;;;2.55;2.20;;;12.50;75.20;;;;;;6244812;23;20102;-90
2021/05/08 12:05:23;;;;;;;1.83;1.73;;;12.40;75.00;;;;;;6244303;22;20012;-90
2021/05/08 12:07:50;;;;;;;2.00;1.85;;;12.30;75.70;;;;;;6246688;22;20000;-92
2021/05/08 12:10:21;;;;;;;7.82;2.20;;;12.30;75.90;;;;;;6245421;22;20000;-90
2021/05/08 12:12:51;;;;;;;2.80;2.15;;;12.50;75.40;;;;;;6245542;22;20034;-90
2021/05/08 12:15:21;;;;;;;3.05;2.15;;;12.60;75.60;;;;;;6245940;23;20115;-90
2021/05/08 12:17:48;;;;;;;2.45;1.88;;;12.90;76.30;;;;;;6245358;23;20004;-92
2021/05/08 12:20:18;;;;;;;1.52;1.42;;;13.30;75.50;;;;;;6244865;22;20035;-90
2021/05/08 12:22:45;;;;;;;2.85;2.05;;;13.70;75.50;;;;;;6244819;23;20327;-90
2021/05/08 12:25:22;;;;;;;1.98;1.77;;;13.90;73.10;;;;;;6245296;23;20014;-90
2021/05/08 12:27:49;;;;;;;2.95;1.70;;;14.10;68.90;;;;;;6246926;22;20044;-89
2021/05/08 12:30:16;;;;;;;1.60;1.50;;;14.20;71.10;;;;;;6246480;23;20011;-90
2021/05/08 12:32:50;;;;;;;1.42;1.30;;;14.30;72.10;;;;;;6246113;22;19997;-88
2021/05/08 12:35:17;;;;;;;1.73;1.60;;;14.30;68.10;;;;;;6244209;22;20130;-88
2021/05/08 12:37:44;;;;;;;1.50;1.40;;;14.20;68.40;;;;;;6244738;23;20055;-88
2021/05/08 12:40:11;;;;;;;2.13;1.90;;;14.00;68.60;;;;;;6244620;22;20499;-89
2021/05/08 12:42:45;;;;;;;1.92;1.80;;;13.90;67.10;;;;;;6244825;22;20320;-88
2021/05/08 12:45:12;;;;;;;2.85;1.70;;;13.70;64.00;;;;;;6245068;23;20095;-91
2021/05/08 12:47:40;;;;;;;1.50;1.40;;;13.50;67.00;;;;;;6244243;22;20055;-90
2021/05/08 12:50:26;;;;;;;1.67;1.58;;;13.40;67.90;;;;;;6244985;23;20058;-89
2021/05/08 12:53:00;;;;;;;1.33;1.23;;;13.20;64.80;;;;;;6245241;23;20091;-89